Time;durP1;ratioP1;P1;durP2;ratioP2;P2;SDS_P1;SDS_P2;PMS_P1;PMS_P2;Temp;Humidity;BMP_temperature;BMP_pressure;BME280_temperature;BME280_humidity;BME280_pressure;Samples;Min_cycle;Max_cycle;Signal;HPM_P1;HPM_P2
2023/01/06 00:00:35;;;;;;;1.50;0.98;;;;;;;6.82;82.63;98085.41;1772861;81;21094;-40
2023/01/06 00:03:02;;;;;;;1.02;0.82;;;;;;;6.84;82.44;98083.11;1772482;81;20985;-40
2023/01/06 00:05:29;;;;;;;2.02;1.10;;;;;;;6.84;82.48;98086.37;1772596;81;21021;-40
2023/01/06 00:07:56;;;;;;;2.15;1.20;;;;;;;6.82;82.52;98092.70;1772658;81;21002;-40
2023/01/06 00:10:23;;;;;;;1.70;1.30;;;;;;;6.80;82.48;98099.02;1772573;81;20965;-40
2023/01/06 00:12:50;;;;;;;1.02;0.93;;;;;;;6.81;82.41;98098.66;1772447;81;21248;-40
2023/01/06 00:15:17;;;;;;;2.45;1.10;;;;;;;6.83;82.36;98103.09;1772920;81;21760;-40
2023/01/06 00:17:44;;;;;;;1.67;1.15;;;;;;;6.81;82.36;98107.31;1773042;81;20977;-40
2023/01/06 00:20:11;;;;;;;1.50;0.82;;;;;;;6.78;82.45;98108.02;1773135;81;21017;-40
2023/01/06 00:22:39;;;;;;;1.75;1.00;;;;;;;6.78;82.43;98116.10;1772937;81;21527;-40
2023/01/06 00:25:10;;;;;;;1.75;1.10;;;;;;;6.81;82.21;98113.48;1773003;81;21295;-40
2023/01/06 00:27:38;;;;;;;2.52;1.07;;;;;;;6.82;82.08;98116.95;1772758;81;20993;-40
2023/01/06 00:30:08;;;;;;;2.12;1.00;;;;;;;6.78;82.22;98116.88;1772809;81;21609;-40
2023/01/06 00:32:35;;;;;;;1.73;1.00;;;;;;;6.76;82.27;98118.40;1773470;81;21004;-40
2023/01/06 00:35:02;;;;;;;2.55;1.00;;;;;;;6.73;82.31;98123.92;1772837;81;21488;-40
2023/01/06 00:37:29;;;;;;;1.70;1.10;;;;;;;6.74;82.19;98119.32;1772826;81;21142;-40
2023/01/06 00:39:56;;;;;;;3.30;1.20;;;;;;;6.79;82.17;98129.78;1773024;81;21518;-40
2023/01/06 00:42:23;;;;;;;1.50;1.17;;;;;;;6.77;82.03;98132.08;1772908;81;20989;-40
2023/01/06 00:44:50;;;;;;;1.40;0.98;;;;;;;6.73;82.08;98140.69;1772744;81;21024;-40
2023/01/06 00:47:17;;;;;;;1.98;1.12;;;;;;;6.69;82.09;98144.66;1772802;81;21494;-40
2023/01/06 00:49:44;;;;;;;1.55;1.25;;;;;;;6.72;81.91;98148.55;1772833;81;21157;-40
2023/01/06 00:52:11;;;;;;;2.00;1.20;;;;;;;6.74;81.99;98142.22;1772849;81;20898;-40
2023/01/06 00:54:38;;;;;;;1.52;1.00;;;;;;;6.72;82.02;98148.55;1772711;81;21566;-40
2023/01/06 00:57:06;;;;;;;2.12;1.10;;;;;;;6.71;82.16;98145.08;1772729;81;21084;-40
2023/01/06 00:59:33;;;;;;;1.60;1.12;;;;;;;6.74;82.10;98150.30;1773165;81;20989;-40
2023/01/06 01:02:01;;;;;;;1.77;1.12;;;;;;;6.81;81.85;98149.84;1772873;81;23238;-40
2023/01/06 01:04:28;;;;;;;1.95;1.30;;;;;;;6.86;81.44;98152.80;1772763;81;21008;-40
2023/01/06 01:06:55;;;;;;;1.37;1.07;;;;;;;6.81;81.46;98156.58;1772984;81;20934;-40
2023/01/06 01:09:29;;;;;;;1.47;1.22;;;;;;;6.76;81.61;98150.16;1773103;81;21032;-40
2023/01/06 01:12:09;;;;;;;1.87;1.10;;;;;;;6.74;81.54;98151.64;1773076;81;21045;-40
2023/01/06 01:14:39;;;;;;;1.85;1.07;;;;;;;6.78;81.52;98161.89;1772813;81;23141;-40
2023/01/06 01:17:07;;;;;;;1.40;0.90;;;;;;;6.80;81.46;98164.45;1773043;81;28692;-40
2023/01/06 01:19:36;;;;;;;2.02;1.37;;;;;;;6.77;81.33;98161.70;1773041;81;20898;-40
2023/01/06 01:22:03;;;;;;;1.77;0.95;;;;;;;6.70;81.42;98163.72;1772892;81;21072;-40
2023/01/06 01:24:30;;;;;;;1.50;1.10;;;;;;;6.67;81.67;98166.37;1772784;81;21029;-40
2023/01/06 01:26:58;;;;;;;1.82;1.35;;;;;;;6.70;81.54;98169.67;1772791;81;20964;-40
2023/01/06 01:29:25;;;;;;;1.20;1.10;;;;;;;6.73;81.60;98175.09;1772636;81;20977;-40
2023/01/06 01:31:52;;;;;;;1.55;1.02;;;;;;;6.72;81.66;98175.48;1772894;81;21029;-40
2023/01/06 01:34:19;;;;;;;1.40;1.00;;;;;;;6.69;81.73;98181.58;1772848;81;21519;-40
2023/01/06 01:36:47;;;;;;;1.92;1.00;;;;;;;6.71;81.76;98184.12;1772784;81;21475;-40
2023/01/06 01:39:15;;;;;;;2.17;1.20;;;;;;;6.74;81.57;98183.39;1772805;81;21206;-40
2023/01/06 01:41:42;;;;;;;1.42;1.10;;;;;;;6.77;81.43;98190.77;1748771;81;21021;-40
2023/01/06 01:44:48;;;;;;;3.72;1.25;;;;;;;6.73;81.59;98189.16;1772894;81;20965;-40
2023/01/06 01:47:29;;;;;;;1.42;1.07;;;;;;;6.67;81.86;98186.56;1772791;81;20945;-40
2023/01/06 01:50:12;;;;;;;2.60;1.07;;;;;;;6.67;82.13;98190.03;1761820;81;20926;-40
2023/01/06 01:52:41;;;;;;;1.05;0.90;;;;;;;6.71;81.91;98194.13;1773046;81;21146;-40
2023/01/06 01:55:09;;;;;;;0.80;0.80;;;;;;;6.68;82.08;98214.46;1773171;81;21506;-40
2023/01/06 01:57:51;;;;;;;1.95;0.80;;;;;;;6.66;81.94;98215.97;1773104;81;21027;-40
2023/01/06 02:00:18;;;;;;;0.78;0.55;;;;;;;6.62;81.58;98222.66;1773115;81;21009;-40
2023/01/06 02:02:45;;;;;;;1.50;0.60;;;;;;;6.59;81.46;98234.13;1773275;81;21009;-40
2023/01/06 02:05:15;;;;;;;1.55;0.85;;;;;;;6.66;81.06;98239.64;1773148;81;21134;-40
2023/01/06 02:07:42;;;;;;;2.50;0.75;;;;;;;6.68;80.78;98244.09;1773137;81;20910;-40
2023/01/06 02:10:19;;;;;;;0.85;0.50;;;;;;;6.65;80.44;98242.69;1773251;81;21080;-40
2023/01/06 02:12:50;;;;;;;0.72;0.60;;;;;;;6.57;80.03;98239.69;1773065;81;21011;-40
2023/01/06 02:15:30;;;;;;;1.00;0.80;;;;;;;6.52;79.71;98254.22;1773058;81;21041;-40
2023/01/06 02:18:21;;;;;;;0.50;0.50;;;;;;;6.51;79.54;98258.05;1773104;81;21208;-40
2023/01/06 02:21:20;;;;;;;0.45;0.45;;;;;;;6.47;79.42;98262.59;1747771;81;21550;-40
2023/01/06 02:24:14;;;;;;;0.40;0.40;;;;;;;6.41;79.38;98270.75;1772947;81;20938;-40
2023/01/06 02:27:01;;;;;;;1.00;0.80;;;;;;;6.26;78.63;98283.73;1772465;80;20981;-40
2023/01/06 02:30:11;;;;;;;0.80;0.60;;;;;;;6.13;77.80;98298.50;1772851;80;21080;-40
2023/01/06 02:33:02;;;;;;;1.70;0.90;;;;;;;5.99;76.95;98303.82;1772845;81;21080;-40
2023/01/06 02:35:57;;;;;;;1.40;1.00;;;;;;;5.80;77.02;98309.73;1772791;81;21577;-40
2023/01/06 02:38:41;;;;;;;1.72;1.00;;;;;;;5.68;77.22;98314.09;1772858;81;21381;-40
2023/01/06 02:41:44;;;;;;;2.42;1.30;;;;;;;5.60;77.26;98325.84;1772124;80;21521;-40
2023/01/06 02:44:31;;;;;;;2.22;1.50;;;;;;;5.57;76.88;98331.91;1773231;81;21006;-40
2023/01/06 02:47:21;;;;;;;1.82;1.40;;;;;;;5.55;76.67;98347.63;1772941;81;21174;-40
2023/01/06 02:50:03;;;;;;;1.98;1.70;;;;;;;5.47;76.50;98351.26;1772677;81;21057;-40
2023/01/06 02:52:45;;;;;;;2.75;2.37;;;;;;;5.35;76.51;98357.31;1772915;81;21012;-40
2023/01/06 02:55:20;;;;;;;2.62;2.17;;;;;;;5.21;76.36;98365.27;1773155;81;20973;-40
2023/01/06 02:58:08;;;;;;;3.33;2.60;;;;;;;5.13;76.82;98373.52;1773103;81;21500;-40
2023/01/06 03:00:40;;;;;;;2.98;2.60;;;;;;;5.11;76.53;98375.75;1773040;81;21130;-40
2023/01/06 03:03:12;;;;;;;3.00;2.70;;;;;;;5.04;76.69;98384.97;1773152;81;21522;-40
2023/01/06 03:05:38;;;;;;;2.90;2.70;;;;;;;4.95;76.94;98389.17;1773318;81;21088;-40
2023/01/06 03:08:15;;;;;;;3.60;2.85;;;;;;;4.87;77.08;98393.37;1749117;81;21535;-40
2023/01/06 03:10:43;;;;;;;2.85;2.30;;;;;;;4.81;77.21;98394.97;1772963;81;21526;-40
2023/01/06 03:13:41;;;;;;;3.50;2.30;;;;;;;4.81;77.18;98412.98;1773246;81;21253;-40
2023/01/06 03:16:10;;;;;;;2.15;1.95;;;;;;;4.78;76.97;98427.89;1757744;81;20957;-40
2023/01/06 03:18:40;;;;;;;2.08;1.85;;;;;;;4.64;76.00;98431.53;1772290;81;21569;-40
2023/01/06 03:21:12;;;;;;;2.40;2.20;;;;;;;4.50;75.25;98434.39;1742879;81;21312;-40
2023/01/06 03:23:40;;;;;;;1.98;1.80;;;;;;;4.35;75.38;98443.39;1701898;83;21174;-40
2023/01/06 03:26:08;;;;;;;2.58;1.92;;;;;;;4.26;75.46;98451.35;1729269;83;21810;-40
2023/01/06 03:28:35;;;;;;;2.33;2.10;;;;;;;4.23;75.41;98458.72;1728694;83;20940;-40
2023/01/06 03:31:28;;;;;;;2.00;1.80;;;;;;;4.19;75.59;98462.65;1728828;83;20945;-40
2023/01/06 03:34:07;;;;;;;2.50;1.77;;;;;;;4.15;75.55;98467.69;1749598;82;20998;-40
2023/01/06 03:36:57;;;;;;;2.00;1.80;;;;;;;4.03;75.40;98468.48;1739349;82;21521;-40
2023/01/06 03:39:40;;;;;;;1.72;1.60;;;;;;;3.89;75.30;98482.24;1739564;82;21248;-40
2023/01/06 03:45:56;;;;;;;2.25;1.85;;;;;;;3.78;75.58;98489.16;1739616;82;21778;-40
2023/01/06 03:48:45;;;;;;;2.27;1.90;;;;;;;3.69;75.95;98500.56;1738285;82;21043;-40
2023/01/06 03:51:43;;;;;;;2.12;1.92;;;;;;;3.63;76.30;98509.93;1734451;82;21071;-40
2023/01/06 03:54:19;;;;;;;;;;;;;;;3.60;76.45;98520.55;1742151;82;21211;-40
2023/01/06 03:57:12;;;;;;;2.12;1.90;;;;;;;3.63;76.38;98530.61;1729940;82;20136;-40
2023/01/06 03:59:46;;;;;;;2.20;2.00;;;;;;;3.59;76.35;98537.18;1739527;82;21000;-40
2023/01/06 04:02:13;;;;;;;2.52;1.85;;;;;;;3.56;76.18;98536.52;1739535;82;21019;-40
2023/01/06 04:04:40;;;;;;;2.62;2.42;;;;;;;3.51;76.11;98542.09;1739417;82;21047;-41
2023/01/06 04:07:08;;;;;;;3.12;2.52;;;;;;;3.45;75.85;98552.23;1739597;82;21141;-40
2023/01/06 04:09:36;;;;;;;2.27;2.08;;;;;;;3.44;75.73;98557.91;1739418;82;21095;-41
2023/01/06 04:14:50;;;;;;;2.75;2.55;;;;;;;3.48;75.62;98577.59;1739181;82;20987;-41
2023/01/06 04:17:17;;;;;;;3.00;2.70;;;;;;;3.44;75.63;98588.73;1724275;83;21040;-40
2023/01/06 04:19:44;;;;;;;3.22;2.92;;;;;;;3.41;75.92;98588.06;1720180;83;23142;-40
2023/01/06 04:22:11;;;;;;;3.10;2.80;;;;;;;3.40;75.95;98590.50;1731705;82;20980;-41
2023/01/06 04:24:38;;;;;;;3.10;2.80;;;;;;;3.39;76.01;98594.29;1731661;82;21033;-40
2023/01/06 04:27:05;;;;;;;2.92;2.72;;;;;;;3.39;75.97;98600.98;1731751;82;21083;-40
2023/01/06 04:29:32;;;;;;;3.22;2.92;;;;;;;3.35;76.17;98601.42;1733495;82;21040;-40
2023/01/06 04:31:59;;;;;;;3.42;3.12;;;;;;;3.33;76.44;98614.39;1733663;82;21158;-40
2023/01/06 04:34:26;;;;;;;4.35;3.08;;;;;;;3.33;76.63;98615.17;1733551;82;21896;-40
2023/01/06 04:36:53;;;;;;;3.22;2.55;;;;;;;3.33;76.41;98635.27;1733496;82;20976;-40
2023/01/06 04:39:20;;;;;;;3.12;2.83;;;;;;;3.33;76.46;98637.16;1733604;82;20980;-41
2023/01/06 04:41:47;;;;;;;3.67;3.30;;;;;;;3.37;76.07;98643.42;1703928;82;21052;-40
2023/01/06 04:44:14;;;;;;;3.30;3.00;;;;;;;3.30;76.18;98652.53;1733646;82;21562;-40
2023/01/06 04:46:41;;;;;;;3.60;3.30;;;;;;;3.30;76.35;98655.20;1733547;82;21517;-40
2023/01/06 04:49:07;;;;;;;4.05;3.15;;;;;;;3.27;76.36;98659.34;1733719;82;21525;-40
2023/01/06 04:51:34;;;;;;;3.27;2.98;;;;;;;3.25;76.50;98672.27;1733654;82;21627;-40
2023/01/06 04:54:01;;;;;;;3.75;3.17;;;;;;;3.25;76.46;98679.52;1733703;82;21107;-41
2023/01/06 04:56:28;;;;;;;4.20;3.72;;;;;;;3.25;76.40;98689.67;1733592;82;21268;-40
2023/01/06 04:58:55;;;;;;;4.28;3.87;;;;;;;3.28;76.47;98699.76;1733451;82;21032;-40
2023/01/06 05:01:23;;;;;;;4.20;3.80;;;;;;;3.30;76.46;98707.45;1733582;82;21000;-40
2023/01/06 05:03:50;;;;;;;3.83;3.42;;;;;;;3.32;76.18;98722.09;1733620;82;21024;-41
2023/01/06 05:06:17;;;;;;;3.70;3.40;;;;;;;3.28;75.90;98722.52;1733722;82;21087;-40
2023/01/06 05:08:43;;;;;;;3.50;3.20;;;;;;;3.25;75.54;98729.06;1733730;82;21300;-40
2023/01/06 05:11:17;;;;;;;3.40;3.10;;;;;;;3.24;75.44;98728.31;1733701;82;20999;-40
2023/01/06 05:13:44;;;;;;;4.33;3.72;;;;;;;3.24;75.61;98727.52;1733680;82;21064;-40
2023/01/06 05:16:15;;;;;;;4.25;3.80;;;;;;;3.24;75.61;98739.58;1733695;82;20937;-41
2023/01/06 05:18:42;;;;;;;5.08;3.92;;;;;;;3.21;75.49;98744.23;1733620;82;21950;-40
2023/01/06 05:21:09;;;;;;;6.05;4.05;;;;;;;3.18;75.46;98750.24;1733526;82;23109;-40
2023/01/06 05:23:37;;;;;;;4.90;3.33;;;;;;;3.15;75.24;98753.59;1746585;82;21044;-40
2023/01/06 05:26:04;;;;;;;4.20;3.40;;;;;;;3.14;75.28;98754.13;1731713;82;21330;-40
2023/01/06 05:28:31;;;;;;;4.30;3.60;;;;;;;3.15;75.39;98757.60;1724300;83;21095;-40
2023/01/06 05:31:02;;;;;;;4.33;3.70;;;;;;;3.14;75.52;98764.84;1720642;83;21573;-40
2023/01/06 05:33:31;;;;;;;4.47;3.87;;;;;;;3.13;75.42;98780.69;1731821;82;21008;-41
2023/01/06 05:36:00;;;;;;;4.22;3.83;;;;;;;3.09;75.33;98787.02;1732132;82;21001;-40
2023/01/06 05:38:27;;;;;;;3.77;3.40;;;;;;;3.02;75.38;98798.22;1731790;82;21514;-40
2023/01/06 05:40:55;;;;;;;4.72;3.65;;;;;;;3.02;75.43;98803.02;1733737;82;21095;-40
2023/01/06 05:43:23;;;;;;;5.30;3.83;;;;;;;3.11;75.39;98814.23;1733761;82;21076;-40
2023/01/06 05:45:51;;;;;;;4.05;3.75;;;;;;;3.10;75.25;98820.72;1733856;82;21065;-40
2023/01/06 05:48:18;;;;;;;4.28;3.80;;;;;;;3.10;75.46;98831.44;1733636;82;20992;-40
2023/01/06 05:50:44;;;;;;;5.37;4.33;;;;;;;3.12;75.54;98833.22;1733703;82;20932;-40
2023/01/06 05:53:11;;;;;;;4.03;3.62;;;;;;;3.16;75.59;98830.13;1734011;82;21499;-40
2023/01/06 05:55:39;;;;;;;4.80;3.60;;;;;;;3.18;75.18;98839.42;1733531;82;21478;-40
2023/01/06 05:58:06;;;;;;;5.65;4.30;;;;;;;3.21;75.13;98838.77;1733806;82;21254;-40
2023/01/06 06:00:33;;;;;;;5.05;4.00;;;;;;;3.24;74.78;98845.38;1733726;82;20983;-40
2023/01/06 06:03:00;;;;;;;5.30;4.03;;;;;;;3.19;74.51;98857.07;1733679;82;21676;-40
2023/01/06 06:05:26;;;;;;;4.90;3.98;;;;;;;3.14;74.24;98858.59;1733767;82;21056;-40
2023/01/06 06:07:54;;;;;;;4.80;4.17;;;;;;;3.07;74.41;98870.34;1733634;82;21067;-40
2023/01/06 06:10:22;;;;;;;4.25;3.80;;;;;;;3.02;74.66;98869.97;1709554;82;21143;-40
2023/01/06 06:12:51;;;;;;;4.58;3.90;;;;;;;3.02;74.66;98879.34;1733871;82;21031;-40
2023/01/06 06:15:18;;;;;;;4.30;3.90;;;;;;;3.03;74.79;98886.27;1733998;82;20997;-40
2023/01/06 06:17:45;;;;;;;4.85;4.35;;;;;;;3.04;74.96;98887.85;1733874;82;21056;-41
2023/01/06 06:20:12;;;;;;;5.97;5.33;;;;;;;3.00;75.01;98894.93;1733903;82;21040;-40
2023/01/06 06:22:38;;;;;;;6.95;6.08;;;;;;;2.97;75.23;98903.61;1733867;82;21086;-40
2023/01/06 06:25:07;;;;;;;7.05;6.35;;;;;;;2.94;75.16;98908.83;1733720;82;21001;-40
2023/01/06 06:27:33;;;;;;;6.50;5.08;;;;;;;2.85;74.98;98915.55;1747037;82;20988;-40
2023/01/06 06:30:00;;;;;;;5.55;5.05;;;;;;;2.81;75.21;98928.56;1731917;82;21374;-41
2023/01/06 06:32:29;;;;;;;5.90;5.30;;;;;;;2.83;74.93;98945.86;1747326;82;21068;-41
2023/01/06 06:34:57;;;;;;;5.72;5.05;;;;;;;2.81;74.67;98950.73;1731666;82;21279;-40
2023/01/06 06:37:23;;;;;;;6.08;5.53;;;;;;;2.75;74.82;98953.36;1746715;82;21518;-41
2023/01/06 06:39:50;;;;;;;6.87;6.17;;;;;;;2.72;74.77;98960.67;1731597;82;21576;-40
2023/01/06 06:42:17;;;;;;;5.58;5.03;;;;;;;2.70;74.68;98974.14;1724451;83;21091;-40
2023/01/06 06:44:43;;;;;;;4.70;4.30;;;;;;;2.64;74.49;98969.50;1720181;83;21566;-40
2023/01/06 06:47:10;;;;;;;4.55;4.12;;;;;;;2.61;74.32;98980.85;1731745;82;21138;-40
2023/01/06 06:49:37;;;;;;;4.75;4.25;;;;;;;2.61;74.07;98987.55;1731641;82;20969;-40
2023/01/06 06:52:04;;;;;;;5.75;5.15;;;;;;;2.60;74.21;98993.44;1731940;82;21040;-40
2023/01/06 06:54:30;;;;;;;5.42;4.92;;;;;;;2.57;74.38;98999.95;1733623;82;21560;-40
2023/01/06 06:56:58;;;;;;;5.78;4.97;;;;;;;2.54;74.36;99004.61;1733548;82;20980;-40
2023/01/06 06:59:25;;;;;;;5.08;4.50;;;;;;;2.48;74.32;99013.34;1733650;82;21156;-40
2023/01/06 07:01:52;;;;;;;5.50;4.53;;;;;;;2.45;74.61;99019.88;1733491;82;21671;-40
2023/01/06 07:04:18;;;;;;;5.20;4.70;;;;;;;2.48;74.83;99025.37;1733510;82;20988;-40
2023/01/06 07:06:45;;;;;;;5.22;4.65;;;;;;;2.54;75.16;99036.72;1733500;82;21091;-40
2023/01/06 07:09:12;;;;;;;5.62;5.08;;;;;;;2.58;75.28;99048.36;1733619;82;21095;-40
2023/01/06 07:11:39;;;;;;;5.42;4.92;;;;;;;2.59;75.38;99052.62;1733436;82;23158;-40
2023/01/06 07:14:08;;;;;;;5.62;4.50;;;;;;;2.58;75.17;99056.39;1733618;82;21561;-40
2023/01/06 07:16:35;;;;;;;4.60;4.20;;;;;;;2.53;75.29;99065.91;1734345;82;21043;-41
2023/01/06 07:19:01;;;;;;;5.10;4.60;;;;;;;2.55;75.44;99081.11;1736598;82;21544;-40
2023/01/06 07:21:28;;;;;;;7.03;6.33;;;;;;;2.58;75.58;99084.48;1749654;82;21012;-40
2023/01/06 07:23:55;;;;;;;16.27;10.30;;;;;;;2.58;75.68;99093.85;1739214;82;21322;-40
2023/01/06 07:26:22;;;;;;;10.78;7.90;;;;;;;2.60;75.84;99108.52;1739317;82;20936;-40
2023/01/06 07:28:49;;;;;;;6.97;5.78;;;;;;;2.56;74.66;99113.47;1739507;82;21557;-40
2023/01/06 07:31:16;;;;;;;4.85;3.90;;;;;;;2.50;74.40;99118.72;1739430;82;20992;-40
2023/01/06 07:33:43;;;;;;;3.40;3.10;;;;;;;2.48;74.09;99122.24;1739396;82;21031;-40
2023/01/06 07:36:10;;;;;;;4.20;3.80;;;;;;;2.44;73.51;99126.64;1739639;82;21216;-40
2023/01/06 07:38:36;;;;;;;5.60;4.60;;;;;;;2.36;73.52;99130.89;1749796;82;21082;-40
2023/01/06 07:41:04;;;;;;;4.37;3.98;;;;;;;2.29;73.58;99131.87;1739494;82;21458;-40
2023/01/06 07:43:31;;;;;;;6.28;4.05;;;;;;;2.25;73.80;99148.30;1739641;82;21095;-40
2023/01/06 07:45:58;;;;;;;3.77;3.08;;;;;;;2.21;73.91;99147.90;1739382;82;21051;-40
2023/01/06 07:48:25;;;;;;;3.15;2.62;;;;;;;2.19;74.28;99154.34;1739500;82;21250;-40
2023/01/06 07:50:51;;;;;;;3.67;3.27;;;;;;;2.23;73.87;99159.84;1739446;82;21498;-40
2023/01/06 07:53:18;;;;;;;4.03;2.90;;;;;;;2.19;73.78;99167.71;1739440;82;21034;-40
2023/01/06 07:55:52;;;;;;;3.20;2.80;;;;;;;2.17;73.73;99178.49;1739432;82;21091;-40
2023/01/06 07:58:19;;;;;;;3.45;2.85;;;;;;;2.16;73.73;99183.05;1739376;82;21585;-40
2023/01/06 08:00:46;;;;;;;3.98;2.50;;;;;;;2.13;73.47;99190.91;1739687;82;21112;-40
2023/01/06 08:03:13;;;;;;;2.20;2.00;;;;;;;2.09;73.15;99200.06;1739472;82;20948;-40
2023/01/06 12:38:54;;;;;;;4.60;3.60;;;;;;;0.13;72.16;99592.54;1756068;80;23221;-39
2023/01/06 12:41:44;;;;;;;7.10;4.08;;;;;;;0.23;71.20;99597.75;1724111;82;21720;-39
2023/01/06 12:44:34;;;;;;;11.12;4.87;;;;;;;0.17;71.02;99604.22;1728548;83;21231;-39
2023/01/06 12:47:09;;;;;;;4.80;3.92;;;;;;;0.17;70.99;99609.55;1729615;83;20964;-39
2023/01/06 12:50:05;;;;;;;5.85;4.10;;;;;;;0.18;70.62;99620.47;1729606;83;21032;-39
2023/01/06 12:52:39;;;;;;;5.70;4.42;;;;;;;0.14;70.39;99626.13;1729626;83;21573;-40
2023/01/06 12:55:08;;;;;;;8.25;4.62;;;;;;;0.12;69.98;99637.59;1737691;82;21075;-39
2023/01/06 12:57:55;;;;;;;5.63;4.50;;;;;;;0.05;69.68;99641.13;1738217;82;21089;-39
2023/01/06 13:00:33;;;;;;;11.88;6.92;;;;;;;-0.02;69.71;99641.48;1737574;82;21018;-39
2023/01/06 13:03:40;;;;;;;8.83;5.80;;;;;;;-0.08;69.56;99650.59;1737739;82;21012;-39
2023/01/06 13:06:27;;;;;;;7.65;5.20;;;;;;;-0.09;70.07;99656.20;1737897;82;21083;-39
2023/01/06 13:09:02;;;;;;;6.55;4.65;;;;;;;-0.12;70.23;99654.11;1732252;82;21031;-39
2023/01/06 13:11:43;;;;;;;6.25;4.33;;;;;;;-0.15;69.74;99656.81;1737870;82;21267;-40
2023/01/06 13:14:49;;;;;;;5.47;4.50;;;;;;;-0.16;69.46;99659.75;1737918;82;21493;-40
2023/01/06 13:17:45;;;;;;;6.22;4.20;;;;;;;-0.15;69.39;99663.47;1737460;82;20976;-39
2023/01/06 13:20:32;;;;;;;7.53;4.80;;;;;;;-0.13;69.60;99667.17;1737719;82;21091;-40
2023/01/06 13:23:19;;;;;;;6.78;5.17;;;;;;;-0.10;69.75;99675.95;1737783;82;21064;-40
2023/01/06 13:26:17;;;;;;;5.60;4.50;;;;;;;-0.11;69.53;99676.48;1737590;82;21164;-39
2023/01/06 13:29:04;;;;;;;10.13;6.67;;;;;;;-0.12;69.53;99678.09;1737575;82;20964;-39
2023/01/06 13:31:48;;;;;;;5.65;4.42;;;;;;;-0.14;69.77;99682.89;1737676;82;20937;-39
2023/01/06 13:34:58;;;;;;;5.50;4.90;;;;;;;-0.15;69.67;99686.13;1737597;82;21358;-39
2023/01/06 13:37:50;;;;;;;5.03;3.83;;;;;;;-0.17;69.58;99692.25;1731200;82;21565;-40
2023/01/06 13:40:21;;;;;;;7.67;5.35;;;;;;;-0.17;69.64;99702.91;1740256;82;21239;-40
2023/01/06 13:43:06;;;;;;;6.70;4.62;;;;;;;-0.17;69.88;99699.45;1763653;81;20968;-39
2023/01/06 13:45:36;;;;;;;6.50;4.70;;;;;;;-0.15;69.70;99710.64;1763557;81;20893;-40
2023/01/06 13:48:07;;;;;;;8.58;5.62;;;;;;;-0.14;69.19;99709.00;1763737;81;20960;-40
2023/01/06 13:50:32;;;;;;;9.20;6.53;;;;;;;-0.14;68.92;99714.87;1763507;80;20993;-39
2023/01/06 13:52:59;;;;;;;5.90;4.30;;;;;;;-0.14;68.72;99717.53;1748426;81;21241;-40
2023/01/06 13:55:35;;;;;;;7.55;5.20;;;;;;;-0.14;68.62;99721.00;1763503;81;20937;-39
2023/01/06 13:58:29;;;;;;;5.53;4.05;;;;;;;-0.18;68.72;99723.17;1763400;81;21516;-40
2023/01/06 14:01:16;;;;;;;7.40;5.40;;;;;;;-0.17;68.46;99727.43;1763862;80;20952;-39
2023/01/06 14:03:43;;;;;;;6.53;4.05;;;;;;;-0.19;68.57;99730.90;1763654;81;20993;-40
2023/01/06 14:06:24;;;;;;;6.72;4.65;;;;;;;-0.18;68.05;99731.16;1763395;81;23123;-40
2023/01/06 14:08:58;;;;;;;5.62;4.37;;;;;;;-0.14;67.98;99734.85;1762898;81;21019;-40
2023/01/06 14:11:36;;;;;;;6.42;4.92;;;;;;;-0.13;67.83;99736.45;1763765;81;21008;-40
2023/01/06 14:14:27;;;;;;;6.20;3.95;;;;;;;-0.13;67.88;99743.11;1763573;80;20984;-40
2023/01/06 14:16:53;;;;;;;6.42;4.70;;;;;;;-0.16;67.65;99742.34;1763821;80;21083;-39
2023/01/06 14:19:30;;;;;;;4.72;4.15;;;;;;;-0.26;68.12;99733.90;1763953;81;21569;-40
2023/01/06 14:22:19;;;;;;;5.17;4.42;;;;;;;-0.14;67.93;99747.64;1763571;81;21513;-39
2023/01/06 14:25:00;;;;;;;6.15;5.05;;;;;;;-0.16;67.75;99755.14;1763662;80;21011;-39
2023/01/06 14:27:52;;;;;;;5.67;4.42;;;;;;;-0.18;67.90;99752.48;1763656;81;21024;-40
2023/01/06 14:30:33;;;;;;;7.47;4.83;;;;;;;-0.26;67.78;99753.88;1762466;80;21091;-40
2023/01/06 14:33:04;;;;;;;4.95;4.17;;;;;;;-0.32;67.47;99752.86;1764037;80;21188;-40
2023/01/06 14:35:42;;;;;;;4.40;3.92;;;;;;;-0.34;67.77;99760.34;1763623;81;20977;-40
2023/01/06 14:38:25;;;;;;;5.10;3.85;;;;;;;-0.33;67.03;99763.25;1770816;80;21501;-40
2023/01/06 14:41:00;;;;;;;3.92;3.20;;;;;;;-0.40;66.86;99768.11;1776831;80;21027;-40
2023/01/06 14:44:00;;;;;;;5.45;3.47;;;;;;;-0.42;66.74;99774.23;1776867;80;20985;-40
2023/01/06 14:46:40;;;;;;;3.60;3.30;;;;;;;-0.44;66.16;99776.62;1776714;80;22129;-40
2023/01/06 14:49:32;;;;;;;3.92;3.45;;;;;;;-0.48;66.06;99786.25;1776875;80;20966;-40
2023/01/06 14:52:04;;;;;;;5.87;3.90;;;;;;;-0.52;66.23;99786.55;1776629;80;21008;-40
2023/01/06 14:54:40;;;;;;;6.53;3.70;;;;;;;-0.54;66.38;99794.03;1776097;80;21531;-40
2023/01/06 14:57:12;;;;;;;5.00;3.55;;;;;;;-0.53;66.32;99796.94;1776498;80;21076;-40
2023/01/06 14:59:41;;;;;;;4.78;3.83;;;;;;;-0.55;66.07;99797.77;1766307;80;20898;-40
2023/01/06 15:02:14;;;;;;;3.27;2.98;;;;;;;-0.54;66.12;99803.89;1776256;80;20961;-40
2023/01/06 15:04:42;;;;;;;3.42;3.12;;;;;;;-0.53;65.93;99804.92;1776591;80;20972;-40
2023/01/06 15:07:18;;;;;;;4.62;3.75;;;;;;;-0.53;66.00;99808.12;1776269;80;21478;-40
2023/01/06 15:09:49;;;;;;;3.90;3.20;;;;;;;-0.50;65.77;99810.25;1776739;80;21102;-40
2023/01/06 15:12:27;;;;;;;4.75;2.95;;;;;;;-0.53;65.54;99818.23;1776534;80;21243;-40
2023/01/06 15:14:54;;;;;;;4.83;3.55;;;;;;;-0.54;64.93;99815.34;1776883;80;20957;-40
2023/01/06 15:17:21;;;;;;;4.50;3.47;;;;;;;-0.58;64.52;99824.92;1776524;80;20937;-40
2023/01/06 15:19:49;;;;;;;4.58;3.40;;;;;;;-0.58;64.62;99827.59;1776582;80;20976;-40
2023/01/06 15:22:22;;;;;;;5.47;3.10;;;;;;;-0.58;64.40;99826.81;1776508;80;21040;-40
2023/01/06 15:24:49;;;;;;;3.80;3.00;;;;;;;-0.59;63.82;99834.00;1776651;80;21105;-40
2023/01/06 15:27:17;;;;;;;3.45;2.95;;;;;;;-0.66;64.01;99832.16;1776371;80;21483;-40
2023/01/06 15:29:53;;;;;;;3.95;3.15;;;;;;;-0.70;64.05;99836.45;1776713;80;21474;-40
2023/01/06 15:32:21;;;;;;;3.95;2.83;;;;;;;-0.76;63.74;99844.19;1776189;80;21077;-40
2023/01/06 15:34:49;;;;;;;4.90;3.67;;;;;;;-0.78;63.60;99850.87;1776704;80;21102;-41
2023/01/06 15:37:24;;;;;;;5.12;4.00;;;;;;;-0.81;63.64;99857.52;1776436;80;21136;-41
2023/01/06 15:39:51;;;;;;;5.20;3.30;;;;;;;-0.84;63.33;99858.07;1775452;80;20890;-40
2023/01/06 15:42:24;;;;;;;4.80;3.70;;;;;;;-0.84;63.43;99862.59;1776470;80;21813;-40
2023/01/06 15:45:00;;;;;;;7.22;4.53;;;;;;;-0.79;63.78;99867.91;1776415;80;21414;-40
2023/01/06 15:47:39;;;;;;;5.35;4.50;;;;;;;-0.76;63.34;99874.80;1776413;80;21095;-40
2023/01/06 15:50:08;;;;;;;8.00;5.37;;;;;;;-0.80;63.20;99878.28;1776638;80;21179;-40
2023/01/06 15:52:44;;;;;;;5.37;4.03;;;;;;;-0.88;63.15;99884.97;1776550;80;20894;-40
2023/01/06 15:55:22;;;;;;;7.05;5.05;;;;;;;-0.89;63.67;99886.03;1776355;80;21016;-40
2023/01/06 15:57:58;;;;;;;6.20;4.30;;;;;;;-0.90;63.50;99887.89;1776525;80;21037;-40
2023/01/06 16:00:39;;;;;;;6.00;4.00;;;;;;;-0.92;63.13;99887.92;1776577;80;21052;-40
2023/01/06 16:03:08;;;;;;;6.53;4.00;;;;;;;-0.93;63.08;99881.80;1773792;80;21251;-40
2023/01/06 16:05:42;;;;;;;6.62;4.87;;;;;;;-0.92;63.23;99880.70;1775996;80;20961;-40
2023/01/06 16:08:27;;;;;;;8.18;5.45;;;;;;;-0.86;63.19;99888.14;1776928;80;20989;-40
2023/01/06 16:12:02;;;;;;;4.90;3.85;;;;;;;-0.85;62.95;99887.08;1776751;80;20925;-40
2023/01/06 16:13:57;;;;;;;9.15;4.35;;;;;;;-0.89;62.69;99891.36;1754395;80;21056;-40
2023/01/06 16:16:31;;;;;;;5.60;3.72;;;;;;;-0.95;63.11;99895.09;1776276;80;21160;-40
2023/01/06 16:19:00;;;;;;;5.53;4.05;;;;;;;-0.91;63.29;99900.13;1776618;80;21554;-40
2023/01/06 16:21:30;;;;;;;6.28;4.45;;;;;;;-0.91;63.10;99908.12;1728778;80;21015;-40
2023/01/06 16:24:03;;;;;;;6.55;4.53;;;;;;;-0.90;62.82;99913.71;1776342;80;21005;-40
2023/01/06 16:26:43;;;;;;;5.95;3.95;;;;;;;-0.90;62.26;99920.36;1776317;80;20957;-40
2023/01/06 16:29:30;;;;;;;6.15;3.87;;;;;;;-0.88;62.29;99924.89;1776539;80;23134;-40
2023/01/06 16:31:56;;;;;;;3.50;2.90;;;;;;;-0.90;61.99;99927.81;1776444;80;21025;-40
2023/01/06 16:34:30;;;;;;;3.87;3.10;;;;;;;-0.94;61.21;99927.30;1776433;80;21518;-40
2023/01/06 16:36:58;;;;;;;4.58;2.47;;;;;;;-1.00;61.07;99925.17;1776543;80;20937;-40
2023/01/06 16:39:26;;;;;;;4.40;3.20;;;;;;;-1.05;61.02;99930.51;1776275;80;21505;-40
2023/01/06 16:42:38;;;;;;;3.80;2.90;;;;;;;-1.07;61.15;99922.55;1776056;80;21108;-40
2023/01/06 16:44:33;;;;;;;4.00;3.17;;;;;;;-1.10;61.18;99928.38;1754327;80;21037;-40
2023/01/06 16:47:01;;;;;;;3.90;2.95;;;;;;;-1.14;61.27;99920.68;1776086;80;21286;-40